sensor_id;sensor_type;location;lat;lon;timestamp;P1;durP1;ratioP1;P2;durP2;ratioP2
11823;SDS011;5969;50.780;7.726;2024-01-25T00:00:33;28.95;;;6.38;;
11823;SDS011;5969;50.780;7.726;2024-01-25T00:03:00;20.90;;;6.07;;
11823;SDS011;5969;50.780;7.726;2024-01-25T00:05:27;24.67;;;6.55;;
11823;SDS011;5969;50.780;7.726;2024-01-25T00:07:54;24.98;;;6.18;;
11823;SDS011;5969;50.780;7.726;2024-01-25T00:10:21;31.27;;;6.30;;
11823;SDS011;5969;50.780;7.726;2024-01-25T00:12:49;24.20;;;5.95;;
11823;SDS011;5969;50.780;7.726;2024-01-25T00:15:17;23.35;;;5.90;;
11823;SDS011;5969;50.780;7.726;2024-01-25T00:17:45;24.27;;;5.82;;
11823;SDS011;5969;50.780;7.726;2024-01-25T00:20:12;24.15;;;6.32;;
11823;SDS011;5969;50.780;7.726;2024-01-25T00:22:39;23.65;;;5.63;;
11823;SDS011;5969;50.780;7.726;2024-01-25T00:25:06;21.13;;;5.18;;
11823;SDS011;5969;50.780;7.726;2024-01-25T00:27:34;25.45;;;6.53;;
11823;SDS011;5969;50.780;7.726;2024-01-25T00:30:01;24.08;;;5.57;;
11823;SDS011;5969;50.780;7.726;2024-01-25T00:32:31;31.77;;;6.22;;
11823;SDS011;5969;50.780;7.726;2024-01-25T00:34:58;24.30;;;5.90;;
11823;SDS011;5969;50.780;7.726;2024-01-25T00:37:26;27.92;;;5.90;;
11823;SDS011;5969;50.780;7.726;2024-01-25T00:39:53;24.30;;;6.10;;
11823;SDS011;5969;50.780;7.726;2024-01-25T00:42:21;26.13;;;6.32;;
11823;SDS011;5969;50.780;7.726;2024-01-25T00:44:49;22.23;;;6.13;;
11823;SDS011;5969;50.780;7.726;2024-01-25T00:47:16;27.38;;;6.40;;
11823;SDS011;5969;50.780;7.726;2024-01-25T00:49:45;25.52;;;6.40;;
11823;SDS011;5969;50.780;7.726;2024-01-25T00:52:13;24.52;;;5.57;;
11823;SDS011;5969;50.780;7.726;2024-01-25T00:54:41;22.33;;;6.05;;
11823;SDS011;5969;50.780;7.726;2024-01-25T00:57:09;21.85;;;6.55;;
11823;SDS011;5969;50.780;7.726;2024-01-25T00:59:36;22.73;;;6.53;;
11823;SDS011;5969;50.780;7.726;2024-01-25T01:02:04;27.27;;;6.13;;
11823;SDS011;5969;50.780;7.726;2024-01-25T01:04:32;30.95;;;6.47;;
11823;SDS011;5969;50.780;7.726;2024-01-25T01:07:01;29.73;;;6.47;;
11823;SDS011;5969;50.780;7.726;2024-01-25T01:09:28;26.02;;;6.43;;
11823;SDS011;5969;50.780;7.726;2024-01-25T01:11:55;21.33;;;6.28;;
11823;SDS011;5969;50.780;7.726;2024-01-25T01:14:23;28.27;;;7.00;;
11823;SDS011;5969;50.780;7.726;2024-01-25T01:16:50;24.08;;;6.00;;
11823;SDS011;5969;50.780;7.726;2024-01-25T01:19:17;31.23;;;7.05;;
11823;SDS011;5969;50.780;7.726;2024-01-25T01:21:45;21.33;;;6.28;;
11823;SDS011;5969;50.780;7.726;2024-01-25T01:24:13;27.15;;;7.32;;
11823;SDS011;5969;50.780;7.726;2024-01-25T01:26:41;29.33;;;7.57;;
11823;SDS011;5969;50.780;7.726;2024-01-25T01:29:08;28.08;;;7.97;;
11823;SDS011;5969;50.780;7.726;2024-01-25T01:31:35;33.33;;;8.13;;
11823;SDS011;5969;50.780;7.726;2024-01-25T01:34:02;32.42;;;8.00;;
11823;SDS011;5969;50.780;7.726;2024-01-25T01:36:29;25.65;;;8.05;;
11823;SDS011;5969;50.780;7.726;2024-01-25T01:38:56;28.45;;;7.65;;
11823;SDS011;5969;50.780;7.726;2024-01-25T01:41:26;32.92;;;6.55;;
11823;SDS011;5969;50.780;7.726;2024-01-25T01:43:53;30.50;;;7.03;;
11823;SDS011;5969;50.780;7.726;2024-01-25T01:46:27;22.17;;;6.47;;
11823;SDS011;5969;50.780;7.726;2024-01-25T01:48:58;26.10;;;7.25;;
11823;SDS011;5969;50.780;7.726;2024-01-25T01:51:25;30.25;;;6.97;;
11823;SDS011;5969;50.780;7.726;2024-01-25T01:53:53;23.05;;;6.50;;
11823;SDS011;5969;50.780;7.726;2024-01-25T01:56:20;25.30;;;6.82;;
11823;SDS011;5969;50.780;7.726;2024-01-25T01:58:50;27.23;;;7.00;;
11823;SDS011;5969;50.780;7.726;2024-01-25T02:01:18;29.17;;;7.03;;
11823;SDS011;5969;50.780;7.726;2024-01-25T02:03:45;25.83;;;6.60;;
11823;SDS011;5969;50.780;7.726;2024-01-25T02:06:13;28.17;;;7.32;;
11823;SDS011;5969;50.780;7.726;2024-01-25T02:08:40;27.42;;;7.18;;
11823;SDS011;5969;50.780;7.726;2024-01-25T02:11:07;32.38;;;7.78;;
11823;SDS011;5969;50.780;7.726;2024-01-25T02:13:34;26.83;;;7.63;;
11823;SDS011;5969;50.780;7.726;2024-01-25T02:16:03;26.40;;;6.75;;
11823;SDS011;5969;50.780;7.726;2024-01-25T02:18:31;30.92;;;8.90;;
11823;SDS011;5969;50.780;7.726;2024-01-25T02:20:59;29.83;;;8.27;;
11823;SDS011;5969;50.780;7.726;2024-01-25T02:23:27;25.20;;;6.38;;
11823;SDS011;5969;50.780;7.726;2024-01-25T02:25:54;29.52;;;7.88;;
11823;SDS011;5969;50.780;7.726;2024-01-25T02:28:21;23.67;;;7.22;;
11823;SDS011;5969;50.780;7.726;2024-01-25T02:30:49;29.65;;;7.53;;
11823;SDS011;5969;50.780;7.726;2024-01-25T02:33:16;29.75;;;7.15;;
11823;SDS011;5969;50.780;7.726;2024-01-25T02:35:43;26.50;;;7.15;;
11823;SDS011;5969;50.780;7.726;2024-01-25T02:38:11;24.75;;;7.07;;
11823;SDS011;5969;50.780;7.726;2024-01-25T02:40:39;25.73;;;7.60;;
11823;SDS011;5969;50.780;7.726;2024-01-25T02:43:08;31.50;;;7.53;;
11823;SDS011;5969;50.780;7.726;2024-01-25T02:45:35;28.35;;;6.90;;
11823;SDS011;5969;50.780;7.726;2024-01-25T02:48:02;28.88;;;7.47;;
11823;SDS011;5969;50.780;7.726;2024-01-25T02:50:29;36.35;;;8.27;;
11823;SDS011;5969;50.780;7.726;2024-01-25T02:52:57;22.85;;;7.22;;
11823;SDS011;5969;50.780;7.726;2024-01-25T02:55:24;22.38;;;6.80;;
11823;SDS011;5969;50.780;7.726;2024-01-25T02:57:52;28.90;;;8.65;;
11823;SDS011;5969;50.780;7.726;2024-01-25T03:00:20;33.60;;;7.93;;
11823;SDS011;5969;50.780;7.726;2024-01-25T03:02:47;24.88;;;6.60;;
11823;SDS011;5969;50.780;7.726;2024-01-25T03:05:14;25.30;;;7.57;;
11823;SDS011;5969;50.780;7.726;2024-01-25T03:07:42;22.95;;;7.65;;
11823;SDS011;5969;50.780;7.726;2024-01-25T03:10:09;27.33;;;7.68;;
11823;SDS011;5969;50.780;7.726;2024-01-25T03:12:36;25.38;;;6.75;;
11823;SDS011;5969;50.780;7.726;2024-01-25T03:15:06;26.75;;;7.13;;
11823;SDS011;5969;50.780;7.726;2024-01-25T03:17:33;26.80;;;6.28;;
11823;SDS011;5969;50.780;7.726;2024-01-25T03:20:00;26.30;;;6.38;;
11823;SDS011;5969;50.780;7.726;2024-01-25T03:22:27;31.30;;;8.25;;
11823;SDS011;5969;50.780;7.726;2024-01-25T03:24:54;26.30;;;6.95;;
11823;SDS011;5969;50.780;7.726;2024-01-25T03:27:22;31.55;;;6.90;;
11823;SDS011;5969;50.780;7.726;2024-01-25T03:29:49;25.98;;;6.80;;
11823;SDS011;5969;50.780;7.726;2024-01-25T03:32:18;28.05;;;7.13;;
11823;SDS011;5969;50.780;7.726;2024-01-25T03:34:45;24.23;;;7.35;;
11823;SDS011;5969;50.780;7.726;2024-01-25T03:37:12;23.85;;;6.68;;
11823;SDS011;5969;50.780;7.726;2024-01-25T03:39:39;24.60;;;7.57;;
11823;SDS011;5969;50.780;7.726;2024-01-25T03:42:07;24.95;;;7.28;;
11823;SDS011;5969;50.780;7.726;2024-01-25T03:44:34;30.17;;;7.60;;
11823;SDS011;5969;50.780;7.726;2024-01-25T03:47:01;25.77;;;7.20;;
11823;SDS011;5969;50.780;7.726;2024-01-25T03:49:30;26.65;;;7.47;;
11823;SDS011;5969;50.780;7.726;2024-01-25T03:51:57;19.48;;;6.65;;
11823;SDS011;5969;50.780;7.726;2024-01-25T03:54:24;26.08;;;6.40;;
11823;SDS011;5969;50.780;7.726;2024-01-25T03:56:51;25.08;;;5.72;;
11823;SDS011;5969;50.780;7.726;2024-01-25T03:59:19;31.42;;;7.18;;
11823;SDS011;5969;50.780;7.726;2024-01-25T04:01:46;20.70;;;7.30;;
11823;SDS011;5969;50.780;7.726;2024-01-25T04:04:13;29.33;;;7.28;;
11823;SDS011;5969;50.780;7.726;2024-01-25T04:06:42;24.58;;;6.00;;
11823;SDS011;5969;50.780;7.726;2024-01-25T04:09:11;28.02;;;5.95;;
11823;SDS011;5969;50.780;7.726;2024-01-25T04:11:38;26.58;;;6.40;;
11823;SDS011;5969;50.780;7.726;2024-01-25T04:14:05;23.00;;;5.35;;
11823;SDS011;5969;50.780;7.726;2024-01-25T04:16:32;24.45;;;6.00;;
11823;SDS011;5969;50.780;7.726;2024-01-25T04:19:00;23.95;;;6.15;;
11823;SDS011;5969;50.780;7.726;2024-01-25T04:21:27;28.08;;;6.88;;
11823;SDS011;5969;50.780;7.726;2024-01-25T04:23:56;22.77;;;5.30;;
11823;SDS011;5969;50.780;7.726;2024-01-25T04:26:23;21.25;;;6.25;;
11823;SDS011;5969;50.780;7.726;2024-01-25T04:28:50;22.17;;;6.43;;
11823;SDS011;5969;50.780;7.726;2024-01-25T04:31:17;21.02;;;5.90;;
11823;SDS011;5969;50.780;7.726;2024-01-25T04:33:45;29.48;;;6.40;;
11823;SDS011;5969;50.780;7.726;2024-01-25T04:36:12;27.38;;;6.55;;
11823;SDS011;5969;50.780;7.726;2024-01-25T04:38:39;25.05;;;6.30;;
11823;SDS011;5969;50.780;7.726;2024-01-25T04:41:08;20.52;;;6.05;;
11823;SDS011;5969;50.780;7.726;2024-01-25T04:43:35;30.92;;;7.68;;
11823;SDS011;5969;50.780;7.726;2024-01-25T04:46:03;21.92;;;5.75;;
11823;SDS011;5969;50.780;7.726;2024-01-25T04:48:30;28.05;;;6.45;;
11823;SDS011;5969;50.780;7.726;2024-01-25T04:50:57;27.20;;;6.88;;
11823;SDS011;5969;50.780;7.726;2024-01-25T04:53:24;24.20;;;6.50;;
11823;SDS011;5969;50.780;7.726;2024-01-25T04:55:53;31.67;;;7.50;;
11823;SDS011;5969;50.780;7.726;2024-01-25T04:58:22;28.33;;;6.88;;
11823;SDS011;5969;50.780;7.726;2024-01-25T05:00:49;27.15;;;6.50;;
11823;SDS011;5969;50.780;7.726;2024-01-25T05:03:17;25.88;;;6.05;;
11823;SDS011;5969;50.780;7.726;2024-01-25T05:05:45;25.95;;;6.15;;
11823;SDS011;5969;50.780;7.726;2024-01-25T05:08:12;25.65;;;6.25;;
11823;SDS011;5969;50.780;7.726;2024-01-25T05:10:39;25.85;;;6.30;;
11823;SDS011;5969;50.780;7.726;2024-01-25T05:13:07;30.85;;;6.80;;
11823;SDS011;5969;50.780;7.726;2024-01-25T05:15:35;26.50;;;6.63;;
11823;SDS011;5969;50.780;7.726;2024-01-25T05:18:03;29.73;;;6.43;;
11823;SDS011;5969;50.780;7.726;2024-01-25T05:20:31;26.05;;;7.45;;
11823;SDS011;5969;50.780;7.726;2024-01-25T05:23:00;31.83;;;8.43;;
11823;SDS011;5969;50.780;7.726;2024-01-25T05:25:28;21.40;;;7.70;;
11823;SDS011;5969;50.780;7.726;2024-01-25T05:27:56;25.95;;;8.23;;
11823;SDS011;5969;50.780;7.726;2024-01-25T05:30:23;27.75;;;8.95;;
11823;SDS011;5969;50.780;7.726;2024-01-25T05:32:52;28.77;;;12.57;;
11823;SDS011;5969;50.780;7.726;2024-01-25T05:35:20;27.30;;;10.95;;
11823;SDS011;5969;50.780;7.726;2024-01-25T05:37:48;25.70;;;7.85;;
11823;SDS011;5969;50.780;7.726;2024-01-25T05:40:16;25.20;;;8.68;;
11823;SDS011;5969;50.780;7.726;2024-01-25T05:42:43;36.25;;;13.88;;
11823;SDS011;5969;50.780;7.726;2024-01-25T05:45:10;38.17;;;10.70;;
11823;SDS011;5969;50.780;7.726;2024-01-25T05:47:38;28.60;;;10.07;;
11823;SDS011;5969;50.780;7.726;2024-01-25T05:50:07;29.23;;;11.13;;
11823;SDS011;5969;50.780;7.726;2024-01-25T05:52:34;31.05;;;8.25;;
11823;SDS011;5969;50.780;7.726;2024-01-25T05:55:02;31.70;;;12.70;;
11823;SDS011;5969;50.780;7.726;2024-01-25T05:57:29;28.60;;;8.65;;
11823;SDS011;5969;50.780;7.726;2024-01-25T05:59:57;27.55;;;8.43;;
11823;SDS011;5969;50.780;7.726;2024-01-25T06:02:24;26.48;;;8.18;;
11823;SDS011;5969;50.780;7.726;2024-01-25T06:04:51;26.52;;;7.22;;
11823;SDS011;5969;50.780;7.726;2024-01-25T06:07:20;21.55;;;8.18;;
11823;SDS011;5969;50.780;7.726;2024-01-25T06:09:47;27.33;;;8.63;;
11823;SDS011;5969;50.780;7.726;2024-01-25T06:12:14;23.92;;;8.50;;
11823;SDS011;5969;50.780;7.726;2024-01-25T06:14:42;30.65;;;8.85;;
11823;SDS011;5969;50.780;7.726;2024-01-25T06:17:09;22.95;;;8.07;;
11823;SDS011;5969;50.780;7.726;2024-01-25T06:19:36;30.70;;;8.65;;
11823;SDS011;5969;50.780;7.726;2024-01-25T06:22:03;27.95;;;8.70;;
11823;SDS011;5969;50.780;7.726;2024-01-25T06:24:32;28.98;;;8.82;;
11823;SDS011;5969;50.780;7.726;2024-01-25T06:27:00;28.50;;;8.38;;
11823;SDS011;5969;50.780;7.726;2024-01-25T06:29:27;26.70;;;8.55;;
11823;SDS011;5969;50.780;7.726;2024-01-25T06:31:54;34.50;;;9.88;;
11823;SDS011;5969;50.780;7.726;2024-01-25T06:34:22;30.48;;;9.43;;
11823;SDS011;5969;50.780;7.726;2024-01-25T06:36:50;26.17;;;9.00;;
11823;SDS011;5969;50.780;7.726;2024-01-25T06:39:17;26.25;;;8.43;;
11823;SDS011;5969;50.780;7.726;2024-01-25T06:41:45;31.63;;;9.70;;
11823;SDS011;5969;50.780;7.726;2024-01-25T06:44:13;26.13;;;8.73;;
11823;SDS011;5969;50.780;7.726;2024-01-25T06:46:40;35.50;;;10.07;;
11823;SDS011;5969;50.780;7.726;2024-01-25T06:49:07;29.35;;;9.32;;
11823;SDS011;5969;50.780;7.726;2024-01-25T06:51:34;30.17;;;8.98;;
11823;SDS011;5969;50.780;7.726;2024-01-25T06:54:01;25.80;;;9.23;;
11823;SDS011;5969;50.780;7.726;2024-01-25T06:56:29;27.75;;;8.98;;
11823;SDS011;5969;50.780;7.726;2024-01-25T06:58:57;27.77;;;9.55;;
11823;SDS011;5969;50.780;7.726;2024-01-25T07:01:25;29.85;;;9.63;;
11823;SDS011;5969;50.780;7.726;2024-01-25T07:03:53;37.35;;;9.07;;
11823;SDS011;5969;50.780;7.726;2024-01-25T07:06:20;29.63;;;9.98;;
11823;SDS011;5969;50.780;7.726;2024-01-25T07:08:47;33.13;;;10.18;;
11823;SDS011;5969;50.780;7.726;2024-01-25T07:11:15;22.73;;;8.57;;
11823;SDS011;5969;50.780;7.726;2024-01-25T07:13:42;28.95;;;11.75;;
11823;SDS011;5969;50.780;7.726;2024-01-25T07:16:11;27.52;;;9.85;;
11823;SDS011;5969;50.780;7.726;2024-01-25T07:18:38;27.15;;;8.18;;
11823;SDS011;5969;50.780;7.726;2024-01-25T07:21:05;26.08;;;8.13;;
11823;SDS011;5969;50.780;7.726;2024-01-25T07:23:33;31.75;;;9.07;;
11823;SDS011;5969;50.780;7.726;2024-01-25T07:26:00;34.47;;;10.63;;
11823;SDS011;5969;50.780;7.726;2024-01-25T07:28:27;30.35;;;9.88;;
11823;SDS011;5969;50.780;7.726;2024-01-25T07:30:54;31.55;;;9.00;;
11823;SDS011;5969;50.780;7.726;2024-01-25T07:33:23;28.70;;;8.80;;
11823;SDS011;5969;50.780;7.726;2024-01-25T07:35:51;29.85;;;9.63;;
11823;SDS011;5969;50.780;7.726;2024-01-25T07:38:18;31.50;;;11.10;;
11823;SDS011;5969;50.780;7.726;2024-01-25T07:40:45;33.17;;;11.35;;
11823;SDS011;5969;50.780;7.726;2024-01-25T07:43:12;29.35;;;10.43;;
11823;SDS011;5969;50.780;7.726;2024-01-25T07:45:40;31.25;;;10.57;;
11823;SDS011;5969;50.780;7.726;2024-01-25T07:48:07;33.53;;;11.50;;
11823;SDS011;5969;50.780;7.726;2024-01-25T07:50:35;31.10;;;11.75;;
11823;SDS011;5969;50.780;7.726;2024-01-25T07:53:03;35.63;;;12.52;;
11823;SDS011;5969;50.780;7.726;2024-01-25T07:55:30;33.92;;;13.15;;
11823;SDS011;5969;50.780;7.726;2024-01-25T07:57:57;39.05;;;13.90;;
11823;SDS011;5969;50.780;7.726;2024-01-25T08:00:24;40.42;;;13.88;;
11823;SDS011;5969;50.780;7.726;2024-01-25T08:02:52;36.83;;;12.82;;
11823;SDS011;5969;50.780;7.726;2024-01-25T08:05:19;36.08;;;12.95;;
11823;SDS011;5969;50.780;7.726;2024-01-25T08:07:48;38.50;;;13.40;;
11823;SDS011;5969;50.780;7.726;2024-01-25T08:10:15;41.33;;;15.10;;
11823;SDS011;5969;50.780;7.726;2024-01-25T08:12:42;38.63;;;14.07;;
11823;SDS011;5969;50.780;7.726;2024-01-25T08:15:12;39.53;;;12.90;;
11823;SDS011;5969;50.780;7.726;2024-01-25T08:17:43;44.80;;;16.55;;
11823;SDS011;5969;50.780;7.726;2024-01-25T08:20:10;36.72;;;14.50;;
11823;SDS011;5969;50.780;7.726;2024-01-25T08:22:40;42.53;;;14.98;;
11823;SDS011;5969;50.780;7.726;2024-01-25T08:25:09;36.95;;;16.35;;
11823;SDS011;5969;50.780;7.726;2024-01-25T08:27:41;67.93;;;26.08;;
11823;SDS011;5969;50.780;7.726;2024-01-25T08:30:09;56.97;;;22.33;;
11823;SDS011;5969;50.780;7.726;2024-01-25T08:32:36;43.45;;;15.55;;
11823;SDS011;5969;50.780;7.726;2024-01-25T08:35:06;41.13;;;15.35;;
11823;SDS011;5969;50.780;7.726;2024-01-25T08:37:35;41.55;;;13.60;;
11823;SDS011;5969;50.780;7.726;2024-01-25T08:40:05;34.45;;;13.13;;
11823;SDS011;5969;50.780;7.726;2024-01-25T08:42:36;31.17;;;12.65;;
11823;SDS011;5969;50.780;7.726;2024-01-25T08:45:03;28.52;;;12.45;;
11823;SDS011;5969;50.780;7.726;2024-01-25T08:47:34;37.55;;;13.77;;
11823;SDS011;5969;50.780;7.726;2024-01-25T08:50:04;32.58;;;12.07;;
11823;SDS011;5969;50.780;7.726;2024-01-25T08:52:36;34.35;;;11.25;;
11823;SDS011;5969;50.780;7.726;2024-01-25T08:55:08;30.73;;;11.25;;
11823;SDS011;5969;50.780;7.726;2024-01-25T08:57:39;31.85;;;11.23;;
11823;SDS011;5969;50.780;7.726;2024-01-25T09:00:09;34.88;;;11.40;;
11823;SDS011;5969;50.780;7.726;2024-01-25T09:02:36;29.40;;;10.93;;
11823;SDS011;5969;50.780;7.726;2024-01-25T09:05:10;40.65;;;10.18;;
11823;SDS011;5969;50.780;7.726;2024-01-25T09:07:40;33.33;;;10.60;;
11823;SDS011;5969;50.780;7.726;2024-01-25T09:10:10;41.17;;;11.43;;
11823;SDS011;5969;50.780;7.726;2024-01-25T09:12:39;30.08;;;9.07;;
11823;SDS011;5969;50.780;7.726;2024-01-25T09:15:07;32.10;;;9.68;;
11823;SDS011;5969;50.780;7.726;2024-01-25T09:17:34;30.77;;;8.25;;
11823;SDS011;5969;50.780;7.726;2024-01-25T09:20:05;35.25;;;9.50;;
11823;SDS011;5969;50.780;7.726;2024-01-25T09:22:36;34.40;;;9.27;;
11823;SDS011;5969;50.780;7.726;2024-01-25T09:25:03;29.45;;;8.40;;
11823;SDS011;5969;50.780;7.726;2024-01-25T09:27:32;28.60;;;9.07;;
11823;SDS011;5969;50.780;7.726;2024-01-25T09:30:00;42.50;;;18.25;;
11823;SDS011;5969;50.780;7.726;2024-01-25T09:32:30;33.38;;;9.68;;
11823;SDS011;5969;50.780;7.726;2024-01-25T09:35:00;36.80;;;9.25;;
11823;SDS011;5969;50.780;7.726;2024-01-25T09:37:30;30.77;;;9.70;;
11823;SDS011;5969;50.780;7.726;2024-01-25T09:39:57;31.40;;;9.02;;
11823;SDS011;5969;50.780;7.726;2024-01-25T09:42:32;28.33;;;8.98;;
11823;SDS011;5969;50.780;7.726;2024-01-25T09:45:03;29.92;;;7.45;;
11823;SDS011;5969;50.780;7.726;2024-01-25T09:47:33;29.13;;;9.13;;
11823;SDS011;5969;50.780;7.726;2024-01-25T09:50:03;26.92;;;9.32;;
11823;SDS011;5969;50.780;7.726;2024-01-25T09:52:30;39.45;;;19.33;;
11823;SDS011;5969;50.780;7.726;2024-01-25T09:54:58;29.83;;;10.18;;
11823;SDS011;5969;50.780;7.726;2024-01-25T09:57:27;32.47;;;9.77;;
11823;SDS011;5969;50.780;7.726;2024-01-25T09:59:54;36.13;;;10.68;;
11823;SDS011;5969;50.780;7.726;2024-01-25T10:02:41;27.77;;;8.70;;
11823;SDS011;5969;50.780;7.726;2024-01-25T10:05:16;26.10;;;8.85;;
11823;SDS011;5969;50.780;7.726;2024-01-25T10:07:44;21.77;;;7.90;;
11823;SDS011;5969;50.780;7.726;2024-01-25T10:10:12;29.85;;;8.80;;
11823;SDS011;5969;50.780;7.726;2024-01-25T10:12:40;30.13;;;9.18;;
11823;SDS011;5969;50.780;7.726;2024-01-25T10:15:07;27.52;;;8.95;;
11823;SDS011;5969;50.780;7.726;2024-01-25T10:17:35;27.63;;;8.95;;
11823;SDS011;5969;50.780;7.726;2024-01-25T10:20:05;27.70;;;9.25;;
11823;SDS011;5969;50.780;7.726;2024-01-25T10:22:36;26.98;;;8.05;;
11823;SDS011;5969;50.780;7.726;2024-01-25T10:25:04;28.85;;;8.15;;
11823;SDS011;5969;50.780;7.726;2024-01-25T10:27:34;28.20;;;8.88;;
11823;SDS011;5969;50.780;7.726;2024-01-25T10:30:02;28.50;;;7.95;;
11823;SDS011;5969;50.780;7.726;2024-01-25T10:32:29;25.17;;;7.50;;
11823;SDS011;5969;50.780;7.726;2024-01-25T10:34:56;27.85;;;7.70;;
11823;SDS011;5969;50.780;7.726;2024-01-25T10:37:26;31.17;;;8.40;;
11823;SDS011;5969;50.780;7.726;2024-01-25T10:39:59;28.67;;;8.52;;
11823;SDS011;5969;50.780;7.726;2024-01-25T10:42:29;29.45;;;8.32;;
11823;SDS011;5969;50.780;7.726;2024-01-25T10:44:56;32.15;;;9.10;;
11823;SDS011;5969;50.780;7.726;2024-01-25T10:47:26;24.48;;;8.30;;
11823;SDS011;5969;50.780;7.726;2024-01-25T10:50:02;26.90;;;8.43;;
11823;SDS011;5969;50.780;7.726;2024-01-25T10:52:33;20.15;;;7.03;;
11823;SDS011;5969;50.780;7.726;2024-01-25T10:55:03;28.92;;;7.13;;
11823;SDS011;5969;50.780;7.726;2024-01-25T10:57:36;26.48;;;7.10;;
11823;SDS011;5969;50.780;7.726;2024-01-25T11:00:05;24.50;;;6.50;;
11823;SDS011;5969;50.780;7.726;2024-01-25T11:02:34;18.38;;;6.43;;
11823;SDS011;5969;50.780;7.726;2024-01-25T11:05:07;33.47;;;7.70;;
11823;SDS011;5969;50.780;7.726;2024-01-25T11:07:43;30.13;;;7.00;;
11823;SDS011;5969;50.780;7.726;2024-01-25T11:10:20;25.38;;;8.52;;
11823;SDS011;5969;50.780;7.726;2024-01-25T11:12:50;25.90;;;6.80;;
11823;SDS011;5969;50.780;7.726;2024-01-25T11:15:21;25.20;;;7.70;;
11823;SDS011;5969;50.780;7.726;2024-01-25T11:17:55;32.28;;;8.18;;
11823;SDS011;5969;50.780;7.726;2024-01-25T11:20:23;26.33;;;7.50;;
11823;SDS011;5969;50.780;7.726;2024-01-25T11:22:56;22.58;;;7.45;;
11823;SDS011;5969;50.780;7.726;2024-01-25T11:25:26;26.45;;;7.07;;
11823;SDS011;5969;50.780;7.726;2024-01-25T11:27:54;21.77;;;6.88;;
11823;SDS011;5969;50.780;7.726;2024-01-25T11:30:21;22.90;;;6.50;;
11823;SDS011;5969;50.780;7.726;2024-01-25T11:32:48;21.40;;;6.72;;
11823;SDS011;5969;50.780;7.726;2024-01-25T11:35:16;24.55;;;9.18;;
11823;SDS011;5969;50.780;7.726;2024-01-25T11:37:43;23.88;;;7.03;;
11823;SDS011;5969;50.780;7.726;2024-01-25T11:40:13;25.25;;;6.53;;
11823;SDS011;5969;50.780;7.726;2024-01-25T11:42:41;21.83;;;7.05;;
11823;SDS011;5969;50.780;7.726;2024-01-25T11:45:10;19.27;;;6.38;;
11823;SDS011;5969;50.780;7.726;2024-01-25T11:47:37;20.42;;;5.68;;
11823;SDS011;5969;50.780;7.726;2024-01-25T11:50:05;24.52;;;6.20;;
11823;SDS011;5969;50.780;7.726;2024-01-25T11:52:33;28.83;;;6.78;;
11823;SDS011;5969;50.780;7.726;2024-01-25T11:55:01;23.17;;;6.95;;
11823;SDS011;5969;50.780;7.726;2024-01-25T11:57:29;22.73;;;6.25;;
11823;SDS011;5969;50.780;7.726;2024-01-25T11:59:57;24.67;;;6.55;;
11823;SDS011;5969;50.780;7.726;2024-01-25T12:02:24;24.92;;;6.25;;
11823;SDS011;5969;50.780;7.726;2024-01-25T12:04:52;22.58;;;6.15;;
11823;SDS011;5969;50.780;7.726;2024-01-25T12:07:21;16.83;;;5.60;;
11823;SDS011;5969;50.780;7.726;2024-01-25T12:09:56;22.23;;;6.15;;
11823;SDS011;5969;50.780;7.726;2024-01-25T12:12:23;22.15;;;5.60;;
11823;SDS011;5969;50.780;7.726;2024-01-25T12:14:56;25.42;;;5.45;;
11823;SDS011;5969;50.780;7.726;2024-01-25T12:17:23;19.70;;;4.75;;
11823;SDS011;5969;50.780;7.726;2024-01-25T12:19:50;18.70;;;5.50;;
11823;SDS011;5969;50.780;7.726;2024-01-25T12:22:21;19.75;;;5.95;;
11823;SDS011;5969;50.780;7.726;2024-01-25T12:24:48;20.33;;;5.65;;
11823;SDS011;5969;50.780;7.726;2024-01-25T12:27:15;18.23;;;5.07;;
11823;SDS011;5969;50.780;7.726;2024-01-25T12:29:43;22.88;;;6.00;;
11823;SDS011;5969;50.780;7.726;2024-01-25T12:32:11;19.63;;;5.50;;
11823;SDS011;5969;50.780;7.726;2024-01-25T12:34:39;23.88;;;5.50;;
11823;SDS011;5969;50.780;7.726;2024-01-25T12:37:07;19.98;;;4.88;;
11823;SDS011;5969;50.780;7.726;2024-01-25T12:39:34;19.25;;;4.95;;
11823;SDS011;5969;50.780;7.726;2024-01-25T12:42:01;22.67;;;5.22;;
11823;SDS011;5969;50.780;7.726;2024-01-25T12:44:28;13.43;;;4.22;;
11823;SDS011;5969;50.780;7.726;2024-01-25T12:46:56;17.55;;;5.50;;
11823;SDS011;5969;50.780;7.726;2024-01-25T12:49:27;15.90;;;4.53;;
11823;SDS011;5969;50.780;7.726;2024-01-25T12:51:55;17.90;;;4.72;;
11823;SDS011;5969;50.780;7.726;2024-01-25T12:54:22;16.05;;;4.57;;
11823;SDS011;5969;50.780;7.726;2024-01-25T12:56:49;20.80;;;5.45;;
11823;SDS011;5969;50.780;7.726;2024-01-25T12:59:16;21.40;;;4.65;;
11823;SDS011;5969;50.780;7.726;2024-01-25T13:01:44;15.68;;;4.18;;
11823;SDS011;5969;50.780;7.726;2024-01-25T13:04:11;16.38;;;5.38;;
11823;SDS011;5969;50.780;7.726;2024-01-25T13:06:40;9.88;;;3.95;;
11823;SDS011;5969;50.780;7.726;2024-01-25T13:09:07;14.07;;;4.00;;
11823;SDS011;5969;50.780;7.726;2024-01-25T13:11:34;15.90;;;4.90;;
11823;SDS011;5969;50.780;7.726;2024-01-25T13:14:04;20.05;;;4.38;;
11823;SDS011;5969;50.780;7.726;2024-01-25T13:16:33;16.50;;;4.93;;
11823;SDS011;5969;50.780;7.726;2024-01-25T13:19:00;20.40;;;4.63;;
11823;SDS011;5969;50.780;7.726;2024-01-25T13:21:32;18.73;;;4.18;;
11823;SDS011;5969;50.780;7.726;2024-01-25T13:24:04;15.57;;;4.47;;
11823;SDS011;5969;50.780;7.726;2024-01-25T13:26:35;17.10;;;4.70;;
11823;SDS011;5969;50.780;7.726;2024-01-25T13:29:05;19.75;;;4.90;;
11823;SDS011;5969;50.780;7.726;2024-01-25T13:31:37;19.30;;;4.68;;
11823;SDS011;5969;50.780;7.726;2024-01-25T13:34:05;15.93;;;4.28;;
11823;SDS011;5969;50.780;7.726;2024-01-25T13:36:32;12.48;;;4.18;;
11823;SDS011;5969;50.780;7.726;2024-01-25T13:38:59;14.77;;;4.18;;
11823;SDS011;5969;50.780;7.726;2024-01-25T13:41:28;17.73;;;4.47;;
11823;SDS011;5969;50.780;7.726;2024-01-25T13:43:55;13.52;;;4.32;;
11823;SDS011;5969;50.780;7.726;2024-01-25T13:46:23;11.93;;;4.15;;
11823;SDS011;5969;50.780;7.726;2024-01-25T13:48:50;20.55;;;6.35;;
11823;SDS011;5969;50.780;7.726;2024-01-25T13:51:17;19.88;;;5.65;;
11823;SDS011;5969;50.780;7.726;2024-01-25T13:53:45;14.13;;;4.75;;
11823;SDS011;5969;50.780;7.726;2024-01-25T13:56:14;14.50;;;5.25;;
11823;SDS011;5969;50.780;7.726;2024-01-25T13:58:43;18.27;;;4.47;;
11823;SDS011;5969;50.780;7.726;2024-01-25T14:01:10;18.55;;;5.50;;
11823;SDS011;5969;50.780;7.726;2024-01-25T14:03:37;20.73;;;5.18;;
11823;SDS011;5969;50.780;7.726;2024-01-25T14:06:04;15.57;;;4.75;;
11823;SDS011;5969;50.780;7.726;2024-01-25T14:08:34;17.25;;;4.80;;
11823;SDS011;5969;50.780;7.726;2024-01-25T14:11:02;15.07;;;4.25;;
11823;SDS011;5969;50.780;7.726;2024-01-25T14:13:30;17.85;;;4.50;;
11823;SDS011;5969;50.780;7.726;2024-01-25T14:15:59;20.08;;;4.53;;
11823;SDS011;5969;50.780;7.726;2024-01-25T14:18:27;10.65;;;3.85;;
11823;SDS011;5969;50.780;7.726;2024-01-25T14:20:54;13.35;;;3.95;;
11823;SDS011;5969;50.780;7.726;2024-01-25T14:23:22;13.65;;;4.38;;
11823;SDS011;5969;50.780;7.726;2024-01-25T14:26:21;11.98;;;4.40;;
11823;SDS011;5969;50.780;7.726;2024-01-25T14:29:03;14.32;;;4.18;;
11823;SDS011;5969;50.780;7.726;2024-01-25T14:39:19;16.00;;;4.15;;
11823;SDS011;5969;50.780;7.726;2024-01-25T14:41:47;14.70;;;4.43;;
11823;SDS011;5969;50.780;7.726;2024-01-25T14:44:20;18.45;;;5.03;;
11823;SDS011;5969;50.780;7.726;2024-01-25T14:46:48;11.95;;;4.32;;
11823;SDS011;5969;50.780;7.726;2024-01-25T14:49:15;14.57;;;4.53;;
11823;SDS011;5969;50.780;7.726;2024-01-25T14:51:42;16.30;;;4.60;;
11823;SDS011;5969;50.780;7.726;2024-01-25T14:54:09;13.80;;;4.20;;
11823;SDS011;5969;50.780;7.726;2024-01-25T14:56:38;17.80;;;4.55;;
11823;SDS011;5969;50.780;7.726;2024-01-25T14:59:05;19.08;;;4.20;;